createdAt,value
2019-01-15T00:00:59.666Z,76.99
2019-01-15T00:03:27.075Z,76.87
2019-01-15T00:05:54.478Z,76.38
2019-01-15T00:08:21.942Z,76.43
2019-01-15T00:10:49.347Z,76.68
2019-01-15T00:13:16.747Z,76.45
2019-01-15T00:15:44.181Z,76.33
2019-01-15T00:18:11.586Z,76.15
2019-01-15T00:20:39.837Z,76.05
2019-01-15T00:23:07.231Z,76.23
2019-01-15T00:25:35.510Z,76.10
2019-01-15T00:28:02.937Z,75.89
2019-01-15T00:30:30.328Z,76.00
2019-01-15T00:32:57.725Z,76.32
2019-01-15T00:35:25.175Z,76.44
2019-01-15T00:37:52.586Z,76.52
2019-01-15T00:40:19.982Z,76.47
2019-01-15T00:42:47.418Z,76.54
2019-01-15T00:45:14.859Z,76.36
2019-01-15T00:47:42.242Z,76.08
2019-01-15T00:50:09.661Z,75.93
2019-01-15T00:52:37.113Z,75.69
2019-01-15T00:55:04.559Z,75.51
2019-01-15T00:57:31.984Z,75.47
2019-01-15T00:59:59.367Z,75.69
2019-01-15T01:02:26.767Z,76.03
2019-01-15T01:04:54.176Z,76.41
2019-01-15T01:07:21.728Z,76.80
2019-01-15T01:09:49.115Z,76.81
2019-01-15T01:12:22.187Z,76.65
2019-01-15T01:14:43.935Z,76.49
2019-01-15T01:17:11.349Z,76.44
2019-01-15T01:19:38.824Z,76.37
2019-01-15T01:22:06.236Z,76.37
2019-01-15T01:24:33.658Z,76.32
2019-01-15T01:27:01.102Z,76.47
2019-01-15T01:29:28.513Z,76.48
2019-01-15T01:31:55.908Z,76.48
2019-01-15T01:34:23.318Z,76.43
2019-01-15T01:36:50.703Z,76.31
2019-01-15T01:39:18.119Z,76.43
2019-01-15T01:41:45.514Z,76.79
2019-01-15T01:44:13.563Z,76.95
2019-01-15T01:46:40.968Z,77.05
2019-01-15T01:49:08.361Z,76.97
2019-01-15T01:51:35.826Z,77.07
2019-01-15T01:54:03.175Z,77.55
2019-01-15T01:56:30.576Z,77.76
2019-01-15T01:58:57.999Z,78.03
2019-01-15T02:01:25.407Z,78.00
2019-01-15T02:03:53.137Z,78.14
2019-01-15T02:06:20.561Z,78.11
2019-01-15T02:08:48.054Z,78.03
2019-01-15T02:11:15.447Z,78.21
2019-01-15T02:13:42.881Z,78.27
2019-01-15T02:16:10.270Z,78.29
2019-01-15T02:18:37.689Z,78.24
2019-01-15T02:21:05.193Z,78.15
2019-01-15T02:23:32.589Z,78.17
2019-01-15T02:25:59.987Z,78.01
2019-01-15T02:28:27.403Z,77.91
2019-01-15T02:30:54.782Z,77.87
2019-01-15T02:33:22.219Z,77.93
2019-01-15T02:35:49.605Z,77.90
2019-01-15T02:38:17.022Z,77.89
2019-01-15T02:40:44.430Z,77.67
2019-01-15T02:43:11.823Z,77.75
2019-01-15T02:45:39.249Z,77.62
2019-01-15T02:48:06.668Z,77.44
2019-01-15T02:50:34.865Z,77.27
2019-01-15T02:53:02.288Z,77.34
2019-01-15T02:55:29.664Z,77.17
2019-01-15T02:57:57.079Z,77.33
2019-01-15T03:00:24.474Z,77.74
2019-01-15T03:02:51.897Z,77.91
2019-01-15T03:05:19.288Z,77.86
2019-01-15T03:07:46.752Z,77.68
2019-01-15T03:10:17.052Z,77.68
2019-01-15T03:12:44.513Z,77.68
2019-01-15T03:15:11.921Z,77.75
2019-01-15T03:17:39.312Z,77.78
2019-01-15T03:20:06.886Z,77.65
2019-01-15T03:22:34.294Z,77.83
2019-01-15T03:25:01.723Z,77.94
2019-01-15T03:27:29.246Z,78.03
2019-01-15T03:29:56.683Z,78.11
2019-01-15T03:32:24.080Z,78.56
2019-01-15T03:34:51.469Z,78.48
2019-01-15T03:37:18.868Z,78.38
2019-01-15T03:39:46.260Z,78.40
2019-01-15T03:42:13.685Z,78.26
2019-01-15T03:44:41.067Z,78.17
2019-01-15T03:47:08.487Z,78.17
2019-01-15T03:49:35.878Z,78.23
2019-01-15T03:52:03.287Z,78.06
2019-01-15T03:54:30.697Z,77.93
2019-01-15T03:56:58.121Z,78.01
2019-01-15T03:59:25.501Z,78.07
2019-01-15T04:01:52.911Z,78.34
2019-01-15T04:04:20.308Z,78.54
2019-01-15T04:06:47.707Z,78.72
2019-01-15T04:09:15.204Z,78.83
2019-01-15T04:11:42.598Z,78.93
2019-01-15T04:14:10.013Z,79.06
2019-01-15T04:16:37.407Z,78.94
2019-01-15T04:19:04.816Z,78.85
2019-01-15T04:21:32.226Z,78.98
2019-01-15T04:23:59.643Z,79.02
2019-01-15T04:26:27.099Z,78.99
2019-01-15T04:28:54.639Z,79.02
2019-01-15T04:31:22.021Z,78.84
2019-01-15T04:33:49.411Z,78.72
2019-01-15T04:36:16.813Z,78.85
2019-01-15T04:38:44.216Z,78.87
2019-01-15T04:41:11.597Z,78.67
2019-01-15T04:43:39.288Z,78.55
2019-01-15T04:46:06.679Z,78.55
2019-01-15T04:48:34.151Z,78.58
2019-01-15T04:51:01.559Z,78.69
2019-01-15T04:53:28.973Z,78.67
2019-01-15T04:55:56.436Z,78.61
2019-01-15T04:58:23.995Z,78.50
2019-01-15T05:00:51.391Z,78.47
2019-01-15T05:03:18.802Z,78.49
2019-01-15T05:05:46.250Z,78.44
2019-01-15T05:08:13.700Z,78.42
2019-01-15T05:10:41.091Z,78.24
2019-01-15T05:13:08.520Z,78.06
2019-01-15T05:15:35.910Z,78.11
2019-01-15T05:18:03.329Z,77.87
2019-01-15T05:20:30.747Z,77.91
2019-01-15T05:22:58.347Z,78.17
2019-01-15T05:25:25.783Z,78.22
2019-01-15T05:27:53.154Z,78.26
2019-01-15T05:30:21.431Z,78.55
2019-01-15T05:32:48.950Z,78.74
2019-01-15T05:35:16.435Z,78.75
2019-01-15T05:37:43.871Z,78.56
2019-01-15T05:40:11.395Z,78.38
2019-01-15T05:42:38.800Z,78.50
2019-01-15T05:45:06.200Z,78.49
2019-01-15T05:47:33.642Z,78.30
2019-01-15T05:50:01.029Z,78.18
2019-01-15T05:52:28.413Z,78.08
2019-01-15T05:54:55.896Z,78.11
2019-01-15T05:57:23.347Z,78.07
2019-01-15T05:59:50.881Z,78.22
2019-01-15T06:02:18.348Z,78.13
2019-01-15T06:04:45.896Z,78.11
2019-01-15T06:07:13.285Z,77.99
2019-01-15T06:09:40.702Z,77.78
2019-01-15T06:12:08.109Z,77.80
2019-01-15T06:14:35.554Z,77.84
2019-01-15T06:17:02.992Z,77.76
2019-01-15T06:19:30.386Z,77.82
2019-01-15T06:21:57.790Z,77.60
2019-01-15T06:24:25.195Z,77.43
2019-01-15T06:26:52.604Z,77.43
2019-01-15T06:29:20.542Z,77.27
2019-01-15T06:31:47.954Z,77.12
2019-01-15T06:34:15.353Z,76.88
2019-01-15T06:36:42.780Z,76.65
2019-01-15T06:39:10.207Z,76.54
2019-01-15T06:41:37.599Z,76.55
2019-01-15T06:44:05.027Z,76.58
2019-01-15T06:46:32.453Z,76.83
2019-01-15T06:48:59.845Z,76.85
2019-01-15T06:51:27.394Z,77.00
2019-01-15T06:53:54.791Z,77.03
2019-01-15T06:56:22.185Z,76.76
2019-01-15T06:58:49.654Z,76.82
2019-01-15T07:01:17.101Z,76.88
2019-01-15T07:03:44.527Z,76.47
2019-01-15T07:06:11.927Z,76.28
2019-01-15T07:08:39.323Z,76.41
2019-01-15T07:11:06.735Z,76.27
2019-01-15T07:13:34.158Z,76.43
2019-01-15T07:16:01.565Z,76.56
2019-01-15T07:18:28.970Z,76.52
2019-01-15T07:20:57.380Z,76.39
2019-01-15T07:23:23.822Z,76.07
2019-01-15T07:25:51.246Z,75.66
2019-01-15T07:28:18.723Z,75.60
2019-01-15T07:30:46.322Z,76.15
2019-01-15T07:33:13.715Z,76.32
2019-01-15T07:35:41.141Z,76.06
2019-01-15T07:38:08.542Z,76.03
2019-01-15T07:40:35.940Z,75.96
2019-01-15T07:43:03.427Z,75.82
2019-01-15T07:45:30.850Z,75.84
2019-01-15T07:47:58.592Z,75.76
2019-01-15T07:50:25.973Z,75.72
2019-01-15T07:52:54.129Z,75.93
2019-01-15T07:55:21.920Z,75.76
2019-01-15T07:57:49.349Z,75.84
2019-01-15T08:00:21.326Z,75.64
2019-01-15T08:02:48.757Z,75.18
2019-01-15T08:05:16.234Z,75.27
2019-01-15T08:07:43.624Z,75.47
2019-01-15T08:10:11.037Z,75.48
2019-01-15T08:12:38.601Z,75.44
2019-01-15T08:15:05.988Z,75.41
2019-01-15T08:17:33.392Z,75.16
2019-01-15T08:20:00.873Z,74.75
2019-01-15T08:22:28.250Z,74.39
2019-01-15T08:24:55.643Z,74.13
2019-01-15T08:27:23.052Z,72.67
2019-01-15T08:29:50.483Z,71.08
2019-01-15T08:32:17.883Z,68.63
2019-01-15T08:34:45.301Z,65.48
2019-01-15T08:37:12.784Z,64.23
2019-01-15T08:39:40.220Z,64.12
2019-01-15T08:42:07.633Z,63.86
2019-01-15T08:44:35.050Z,63.52
2019-01-15T08:47:02.454Z,63.35
2019-01-15T08:49:29.895Z,65.02
2019-01-15T08:51:57.301Z,66.25
2019-01-15T08:54:26.244Z,65.42
2019-01-15T08:56:52.936Z,63.08
2019-01-15T08:59:20.343Z,62.19
2019-01-15T09:01:47.902Z,62.85
2019-01-15T09:04:15.309Z,63.35
2019-01-15T09:06:42.703Z,63.02
2019-01-15T09:09:10.113Z,63.67
2019-01-15T09:11:37.539Z,64.68
2019-01-15T09:14:04.967Z,65.32
2019-01-15T09:16:32.384Z,63.85
2019-01-15T09:18:59.790Z,63.06
2019-01-15T09:21:27.242Z,62.36
2019-01-15T09:23:54.643Z,61.02
2019-01-15T09:26:22.027Z,60.78
2019-01-15T09:28:49.476Z,61.63
2019-01-15T09:31:16.886Z,62.96
2019-01-15T09:33:44.324Z,63.79
2019-01-15T09:36:11.714Z,64.34
2019-01-15T09:38:39.194Z,65.05
2019-01-15T09:41:06.593Z,65.86
2019-01-15T09:43:33.990Z,65.97
2019-01-15T09:46:02.032Z,66.12
2019-01-15T09:48:29.536Z,65.51
2019-01-15T09:50:57.044Z,62.77
2019-01-15T09:53:24.558Z,61.23
2019-01-15T09:55:52.018Z,59.46
2019-01-15T09:58:19.416Z,56.64
2019-01-15T10:00:46.820Z,52.72
2019-01-15T10:03:14.227Z,49.49
2019-01-15T10:05:41.702Z,47.78
2019-01-15T10:08:09.126Z,48.79
2019-01-15T10:10:36.573Z,51.42
2019-01-15T10:13:03.989Z,48.91
2019-01-15T10:15:31.426Z,46.93
2019-01-15T10:17:58.836Z,45.29
2019-01-15T10:20:27.033Z,44.16
2019-01-15T10:22:54.443Z,42.52
2019-01-15T10:25:22.662Z,41.73
2019-01-15T10:27:50.084Z,41.05
2019-01-15T10:30:20.976Z,40.59
2019-01-15T10:32:49.931Z,39.96
2019-01-15T10:35:18.296Z,39.53
2019-01-15T10:37:45.685Z,38.65
2019-01-15T10:40:13.238Z,38.73
2019-01-15T10:42:40.678Z,40.10
2019-01-15T10:45:08.108Z,40.14
2019-01-15T10:47:35.532Z,39.75
2019-01-15T10:50:02.946Z,39.81
2019-01-15T10:52:30.368Z,39.84
2019-01-15T10:54:58.683Z,39.56
2019-01-15T10:57:26.267Z,40.03
2019-01-15T10:59:53.719Z,39.37
2019-01-15T11:02:21.143Z,39.54
2019-01-15T11:04:48.568Z,39.35
2019-01-15T11:07:15.964Z,38.92
2019-01-15T11:09:43.374Z,38.41
2019-01-15T11:12:11.330Z,38.38
2019-01-15T11:14:38.759Z,37.75
2019-01-15T11:17:06.189Z,36.98
2019-01-15T11:19:33.623Z,36.22
2019-01-15T11:22:01.266Z,35.88
2019-01-15T11:24:28.741Z,37.33
2019-01-15T11:26:56.181Z,36.82
2019-01-15T11:29:23.603Z,38.76
2019-01-15T11:31:51.008Z,38.52
2019-01-15T11:34:19.097Z,37.16
2019-01-15T11:36:46.522Z,37.56
2019-01-15T11:39:13.958Z,41.95
2019-01-15T11:41:41.460Z,41.99
2019-01-15T11:44:08.974Z,41.76
2019-01-15T11:46:36.372Z,38.03
2019-01-15T11:49:03.779Z,34.78
2019-01-15T11:51:31.185Z,32.75
2019-01-15T11:53:59.134Z,34.98
2019-01-15T11:56:26.566Z,35.75
2019-01-15T11:58:53.976Z,34.35
2019-01-15T12:01:21.384Z,33.29
2019-01-15T12:03:53.356Z,32.48
2019-01-15T12:06:24.966Z,32.07
2019-01-15T12:08:57.847Z,31.29
2019-01-15T12:11:28.840Z,31.67
2019-01-15T12:14:01.268Z,32.21
2019-01-15T12:16:30.216Z,31.96
2019-01-15T12:19:00.511Z,32.29
2019-01-15T12:24:30.142Z,30.11
2019-01-15T12:27:01.026Z,31.38
2019-01-15T12:29:33.288Z,31.02
2019-01-15T12:32:01.683Z,29.17
2019-01-15T12:34:30.004Z,29.42
2019-01-15T12:36:59.000Z,29.97
2019-01-15T12:39:28.194Z,29.48
2019-01-15T12:41:58.083Z,28.64
2019-01-15T12:44:26.340Z,27.90
2019-01-15T12:47:00.226Z,26.65
2019-01-15T12:49:28.140Z,27.10
2019-01-15T12:51:57.058Z,27.24
2019-01-15T12:54:27.424Z,27.29
2019-01-15T12:56:59.810Z,27.82
2019-01-15T12:59:32.631Z,28.77
2019-01-15T13:02:01.983Z,27.83
2019-01-15T13:04:29.436Z,28.33
2019-01-15T13:07:13.648Z,28.05
2019-01-15T13:09:57.013Z,28.05
2019-01-15T13:12:26.261Z,28.03
2019-01-15T13:18:05.723Z,27.39
2019-01-15T13:20:36.182Z,26.47
2019-01-15T13:23:04.508Z,26.45
2019-01-15T13:25:46.819Z,27.02
2019-01-15T13:28:15.691Z,26.43
2019-01-15T13:30:48.664Z,26.23
2019-01-15T13:33:16.970Z,24.72
2019-01-15T13:35:49.770Z,23.99
2019-01-15T13:38:22.743Z,25.05
2019-01-15T13:41:00.047Z,24.48
2019-01-15T13:43:39.373Z,23.89
2019-01-15T13:46:11.191Z,24.21
2019-01-15T13:48:46.194Z,25.56
2019-01-15T13:51:14.981Z,27.41
2019-01-15T13:53:58.949Z,30.20
2019-01-15T13:56:29.320Z,32.21
2019-01-15T13:58:58.315Z,36.33
2019-01-15T14:01:30.135Z,39.82
2019-01-15T14:03:57.554Z,41.64
2019-01-15T14:06:24.946Z,42.63
2019-01-15T14:08:55.282Z,43.36
2019-01-15T14:11:24.041Z,43.77
2019-01-15T14:13:57.702Z,43.47
2019-01-15T14:16:26.720Z,43.25
2019-01-15T14:19:09.827Z,42.98
2019-01-15T14:21:53.901Z,40.62
2019-01-15T14:24:31.331Z,36.25
2019-01-15T14:27:00.671Z,32.26
2019-01-15T14:32:28.167Z,24.00
2019-01-15T14:35:15.414Z,23.06
2019-01-15T14:37:48.525Z,23.55
2019-01-15T14:40:35.026Z,24.65
2019-01-15T14:43:03.432Z,24.68
2019-01-15T14:45:35.367Z,25.42
2019-01-15T14:48:18.501Z,27.20
2019-01-15T14:50:51.450Z,35.56
2019-01-15T14:53:21.055Z,41.09
2019-01-15T14:55:52.420Z,44.59
2019-01-15T15:01:18.663Z,47.82
2019-01-15T15:03:52.986Z,47.95
2019-01-15T15:06:40.187Z,48.15
2019-01-15T15:09:08.518Z,48.46
2019-01-15T15:11:37.024Z,49.42
2019-01-15T15:14:12.005Z,50.85
2019-01-15T15:16:39.449Z,51.86
2019-01-15T15:19:12.332Z,52.09
2019-01-15T15:21:45.295Z,51.99
2019-01-15T15:27:13.058Z,52.42
2019-01-15T15:29:41.401Z,52.17
2019-01-15T15:32:09.273Z,51.71
2019-01-15T15:37:37.623Z,52.84
2019-01-15T15:40:08.902Z,52.89
2019-01-15T15:42:51.191Z,53.13
2019-01-15T15:45:22.175Z,52.98
2019-01-15T15:47:52.055Z,53.42
2019-01-15T15:50:24.309Z,53.63
2019-01-15T15:52:51.791Z,54.15
2019-01-15T15:55:20.656Z,54.47
2019-01-15T15:57:54.696Z,54.57
2019-01-15T16:00:27.530Z,54.72
2019-01-15T16:03:09.903Z,55.00
2019-01-15T16:08:32.095Z,55.26
2019-01-15T16:13:57.190Z,55.08
2019-01-15T16:16:29.036Z,55.20
2019-01-15T16:18:56.467Z,55.47
2019-01-15T16:21:29.535Z,55.87
2019-01-15T16:24:02.599Z,56.29
2019-01-15T16:26:33.820Z,56.49
2019-01-15T16:29:04.736Z,56.83
2019-01-15T16:31:32.215Z,57.11
2019-01-15T16:34:19.528Z,57.69
2019-01-15T16:36:52.505Z,58.21
2019-01-15T16:39:20.839Z,58.63
2019-01-15T16:41:53.620Z,59.07
2019-01-15T16:44:33.779Z,59.54
2019-01-15T16:47:11.087Z,59.91
2019-01-15T16:49:58.283Z,60.28
2019-01-15T16:55:18.839Z,60.58
2019-01-15T16:57:49.214Z,59.90
2019-01-15T17:03:25.695Z,59.07
2019-01-15T17:05:58.693Z,59.09
2019-01-15T17:11:24.377Z,58.56
2019-01-15T17:13:51.817Z,58.15
2019-01-15T17:16:33.594Z,58.43
2019-01-15T17:18:58.424Z,58.67
2019-01-15T17:21:31.591Z,58.76
2019-01-15T17:24:01.526Z,59.00
2019-01-15T17:26:30.319Z,59.23
2019-01-15T17:29:01.675Z,59.50
2019-01-15T17:31:29.490Z,59.70
2019-01-15T17:34:00.683Z,59.89
2019-01-15T17:36:28.563Z,60.08
2019-01-15T17:39:05.922Z,60.25
2019-01-15T17:41:48.226Z,60.62
2019-01-15T17:44:15.650Z,60.72
2019-01-15T17:46:47.550Z,60.84
2019-01-15T17:49:20.468Z,60.94
2019-01-15T17:51:47.958Z,61.17
2019-01-15T17:57:25.579Z,60.51
2019-01-15T17:59:54.410Z,60.64
2019-01-15T18:02:24.334Z,61.08
2019-01-15T18:05:10.653Z,61.37
2019-01-15T18:07:43.829Z,61.54
2019-01-15T18:10:12.175Z,61.72
2019-01-15T18:12:43.430Z,62.20
2019-01-15T18:15:11.770Z,62.45
2019-01-15T18:20:37.189Z,62.83
2019-01-15T18:26:02.982Z,63.04
2019-01-15T18:28:32.617Z,63.06
2019-01-15T18:31:02.491Z,63.65
2019-01-15T18:33:29.945Z,63.82
2019-01-15T18:36:03.374Z,64.00
2019-01-15T18:38:33.175Z,64.03
2019-01-15T18:41:17.493Z,64.25
2019-01-15T18:43:50.334Z,64.41
2019-01-15T18:49:33.800Z,64.87
2019-01-15T18:52:06.826Z,64.77
2019-01-15T18:54:40.852Z,64.86
2019-01-15T18:57:23.371Z,65.25
2019-01-15T19:02:45.169Z,65.73
2019-01-15T19:05:30.629Z,65.53
2019-01-15T19:07:58.507Z,65.63
2019-01-15T19:10:31.600Z,65.95
2019-01-15T19:13:14.043Z,66.36
2019-01-15T19:15:44.152Z,66.62
2019-01-15T19:18:17.132Z,66.65
2019-01-15T19:20:47.006Z,66.65
2019-01-15T19:26:09.280Z,66.68
2019-01-15T19:31:38.586Z,65.85
2019-01-15T19:37:06.321Z,66.29
2019-01-15T19:39:43.640Z,66.75
2019-01-15T19:42:13.590Z,67.00
2019-01-15T19:44:53.811Z,67.17
2019-01-15T19:47:31.150Z,67.54
2019-01-15T19:50:04.137Z,67.56
2019-01-15T19:52:34.900Z,67.84
2019-01-15T19:55:20.045Z,68.28
2019-01-15T19:57:52.016Z,68.21
2019-01-15T20:00:24.952Z,68.40
2019-01-15T20:02:56.362Z,68.57
2019-01-15T20:05:41.557Z,68.69
2019-01-15T20:08:19.719Z,68.91
2019-01-15T20:10:54.854Z,69.13
2019-01-15T20:13:37.858Z,69.12
2019-01-15T20:16:07.192Z,69.18
2019-01-15T20:18:43.012Z,69.57
2019-01-15T20:21:23.307Z,69.70
2019-01-15T20:23:54.780Z,69.67
2019-01-15T20:26:25.976Z,69.76
2019-01-15T20:28:59.187Z,69.75
2019-01-15T20:31:31.386Z,69.70
2019-01-15T20:34:00.626Z,69.78
2019-01-15T20:36:28.633Z,69.93
2019-01-15T20:38:56.490Z,70.04
2019-01-15T20:41:41.764Z,70.12
2019-01-15T20:44:10.542Z,69.93
2019-01-15T20:49:35.852Z,69.44
2019-01-15T20:52:14.022Z,69.60
2019-01-15T20:57:41.062Z,68.76
2019-01-15T21:00:14.305Z,69.00
2019-01-15T21:03:01.688Z,69.31
2019-01-15T21:05:34.924Z,69.42
2019-01-15T21:08:04.719Z,69.58
2019-01-15T21:10:36.932Z,69.60
2019-01-15T21:13:20.969Z,69.68
2019-01-15T21:15:48.374Z,69.86
2019-01-15T21:18:25.716Z,70.00
2019-01-15T21:21:08.856Z,70.02
2019-01-15T21:23:55.956Z,70.15
2019-01-15T21:26:25.921Z,70.08
2019-01-15T21:28:55.273Z,70.18
2019-01-15T21:34:19.203Z,70.49
2019-01-15T21:39:59.950Z,69.91
2019-01-15T21:42:33.033Z,70.43
2019-01-15T21:48:13.349Z,70.15
2019-01-15T21:50:41.583Z,70.48
2019-01-15T21:53:14.508Z,70.76
2019-01-15T21:55:43.736Z,71.04
2019-01-15T21:58:15.675Z,71.27
2019-01-15T22:00:59.766Z,71.21
2019-01-15T22:03:33.692Z,71.10
2019-01-15T22:06:06.737Z,71.07
2019-01-15T22:08:34.570Z,71.33
2019-01-15T22:11:06.503Z,71.55
2019-01-15T22:13:39.553Z,71.92
2019-01-15T22:16:09.899Z,72.12
2019-01-15T22:18:43.825Z,72.32
2019-01-15T22:24:11.057Z,72.38
2019-01-15T22:26:39.287Z,72.49
2019-01-15T22:29:11.478Z,72.59
2019-01-15T22:31:58.914Z,72.53
2019-01-15T22:34:41.191Z,72.60
2019-01-15T22:40:21.757Z,71.91
2019-01-15T22:42:54.755Z,71.99
2019-01-15T22:45:27.770Z,72.06
2019-01-15T22:48:15.158Z,72.05
2019-01-15T22:50:58.327Z,72.02
2019-01-15T22:53:30.631Z,71.97
2019-01-15T22:56:03.622Z,72.24
2019-01-15T22:58:41.734Z,72.54
2019-01-15T23:01:10.098Z,72.57
2019-01-15T23:03:43.013Z,72.59
2019-01-15T23:09:13.384Z,71.95
2019-01-15T23:11:40.836Z,72.15
2019-01-15T23:14:15.672Z,72.28
2019-01-15T23:16:45.536Z,72.24
2019-01-15T23:19:14.375Z,72.41
2019-01-15T23:21:44.227Z,72.40
2019-01-15T23:24:11.624Z,72.41
2019-01-15T23:26:57.926Z,72.28
2019-01-15T23:29:44.019Z,72.46
2019-01-15T23:32:11.452Z,72.39
2019-01-15T23:34:41.145Z,72.80
2019-01-15T23:37:18.752Z,72.94
2019-01-15T23:39:52.143Z,73.25
2019-01-15T23:42:34.473Z,73.45
2019-01-15T23:47:55.961Z,73.44
2019-01-15T23:50:25.325Z,73.48
2019-01-15T23:52:58.696Z,73.61
2019-01-15T23:55:27.637Z,73.33
2019-01-15T23:57:55.860Z,73.44
